sensor_id;sensor_type;location;lat;lon;timestamp;P1;durP1;ratioP1;P2;durP2;ratioP2
10493;SDS011;5294;49.410;8.698;2023-02-21T00:01:55;9.37;;;5.33;;
10493;SDS011;5294;49.410;8.698;2023-02-21T00:04:40;6.37;;;4.77;;
10493;SDS011;5294;49.410;8.698;2023-02-21T00:07:25;5.87;;;5.13;;
10493;SDS011;5294;49.410;8.698;2023-02-21T00:10:11;7.60;;;5.47;;
10493;SDS011;5294;49.410;8.698;2023-02-21T00:12:56;6.63;;;5.07;;
10493;SDS011;5294;49.410;8.698;2023-02-21T00:15:41;6.20;;;4.83;;
10493;SDS011;5294;49.410;8.698;2023-02-21T00:18:25;8.80;;;5.30;;
10493;SDS011;5294;49.410;8.698;2023-02-21T00:21:10;8.23;;;5.53;;
10493;SDS011;5294;49.410;8.698;2023-02-21T00:23:55;7.37;;;6.00;;
10493;SDS011;5294;49.410;8.698;2023-02-21T00:26:42;6.27;;;5.13;;
10493;SDS011;5294;49.410;8.698;2023-02-21T00:29:26;6.57;;;5.80;;
10493;SDS011;5294;49.410;8.698;2023-02-21T00:32:13;7.40;;;5.63;;
10493;SDS011;5294;49.410;8.698;2023-02-21T00:34:58;8.87;;;6.03;;
10493;SDS011;5294;49.410;8.698;2023-02-21T00:37:42;6.53;;;5.27;;
10493;SDS011;5294;49.410;8.698;2023-02-21T00:40:29;7.60;;;5.47;;
10493;SDS011;5294;49.410;8.698;2023-02-21T00:43:14;6.27;;;5.63;;
10493;SDS011;5294;49.410;8.698;2023-02-21T00:45:58;7.83;;;5.77;;
10493;SDS011;5294;49.410;8.698;2023-02-21T00:48:43;7.23;;;5.70;;
10493;SDS011;5294;49.410;8.698;2023-02-21T00:51:27;9.33;;;6.07;;
10493;SDS011;5294;49.410;8.698;2023-02-21T00:54:12;6.07;;;5.20;;
10493;SDS011;5294;49.410;8.698;2023-02-21T00:56:56;8.27;;;5.63;;
10493;SDS011;5294;49.410;8.698;2023-02-21T00:59:40;6.67;;;5.47;;
10493;SDS011;5294;49.410;8.698;2023-02-21T01:02:27;7.60;;;6.10;;
10493;SDS011;5294;49.410;8.698;2023-02-21T01:05:12;6.03;;;5.10;;
10493;SDS011;5294;49.410;8.698;2023-02-21T01:07:57;7.13;;;5.70;;
10493;SDS011;5294;49.410;8.698;2023-02-21T01:10:43;7.00;;;5.90;;
10493;SDS011;5294;49.410;8.698;2023-02-21T01:13:28;6.53;;;5.73;;
10493;SDS011;5294;49.410;8.698;2023-02-21T01:16:15;6.50;;;5.63;;
10493;SDS011;5294;49.410;8.698;2023-02-21T01:18:59;7.00;;;5.60;;
10493;SDS011;5294;49.410;8.698;2023-02-21T01:21:44;8.00;;;5.77;;
10493;SDS011;5294;49.410;8.698;2023-02-21T01:24:29;7.47;;;5.67;;
10493;SDS011;5294;49.410;8.698;2023-02-21T01:27:13;6.47;;;5.87;;
10493;SDS011;5294;49.410;8.698;2023-02-21T01:29:58;8.23;;;5.97;;
10493;SDS011;5294;49.410;8.698;2023-02-21T01:32:42;9.50;;;5.90;;
10493;SDS011;5294;49.410;8.698;2023-02-21T01:35:29;6.90;;;5.40;;
10493;SDS011;5294;49.410;8.698;2023-02-21T01:38:13;7.93;;;6.00;;
10493;SDS011;5294;49.410;8.698;2023-02-21T01:40:58;7.23;;;6.20;;
10493;SDS011;5294;49.410;8.698;2023-02-21T01:43:55;8.53;;;6.87;;
10493;SDS011;5294;49.410;8.698;2023-02-21T01:46:40;6.47;;;5.40;;
10493;SDS011;5294;49.410;8.698;2023-02-21T01:49:25;6.80;;;5.77;;
10493;SDS011;5294;49.410;8.698;2023-02-21T01:52:10;6.83;;;6.13;;
10493;SDS011;5294;49.410;8.698;2023-02-21T01:54:54;7.83;;;5.93;;
10493;SDS011;5294;49.410;8.698;2023-02-21T01:57:39;7.40;;;6.20;;
10493;SDS011;5294;49.410;8.698;2023-02-21T02:00:24;5.90;;;5.30;;
10493;SDS011;5294;49.410;8.698;2023-02-21T02:03:11;6.10;;;5.50;;
10493;SDS011;5294;49.410;8.698;2023-02-21T02:06:00;6.13;;;5.03;;
10493;SDS011;5294;49.410;8.698;2023-02-21T02:08:45;7.67;;;5.60;;
10493;SDS011;5294;49.410;8.698;2023-02-21T02:17:00;5.30;;;4.70;;
10493;SDS011;5294;49.410;8.698;2023-02-21T02:37:34;5.67;;;5.03;;
10493;SDS011;5294;49.410;8.698;2023-02-21T02:45:04;5.73;;;5.03;;
10493;SDS011;5294;49.410;8.698;2023-02-21T02:47:36;9.80;;;5.73;;
10493;SDS011;5294;49.410;8.698;2023-02-21T02:50:03;7.80;;;5.60;;
10493;SDS011;5294;49.410;8.698;2023-02-21T02:52:30;7.97;;;5.80;;
10493;SDS011;5294;49.410;8.698;2023-02-21T02:54:59;10.03;;;6.10;;
10493;SDS011;5294;49.410;8.698;2023-02-21T02:57:26;6.23;;;5.63;;
10493;SDS011;5294;49.410;8.698;2023-02-21T03:00:01;9.00;;;6.20;;
10493;SDS011;5294;49.410;8.698;2023-02-21T03:02:40;7.47;;;5.90;;
10493;SDS011;5294;49.410;8.698;2023-02-21T03:05:54;7.17;;;5.77;;
10493;SDS011;5294;49.410;8.698;2023-02-21T03:10:49;8.97;;;5.93;;
10493;SDS011;5294;49.410;8.698;2023-02-21T03:13:20;7.03;;;6.33;;
10493;SDS011;5294;49.410;8.698;2023-02-21T03:21:04;7.43;;;6.03;;
10493;SDS011;5294;49.410;8.698;2023-02-21T03:23:33;8.70;;;5.97;;
10493;SDS011;5294;49.410;8.698;2023-02-21T03:26:03;6.87;;;6.20;;
10493;SDS011;5294;49.410;8.698;2023-02-21T03:28:31;9.20;;;5.90;;
10493;SDS011;5294;49.410;8.698;2023-02-21T03:30:57;7.73;;;6.40;;
10493;SDS011;5294;49.410;8.698;2023-02-21T03:33:24;6.70;;;5.90;;
10493;SDS011;5294;49.410;8.698;2023-02-21T03:35:51;7.33;;;6.57;;
10493;SDS011;5294;49.410;8.698;2023-02-21T03:38:17;8.87;;;6.50;;
10493;SDS011;5294;49.410;8.698;2023-02-21T03:40:45;8.60;;;6.50;;
10493;SDS011;5294;49.410;8.698;2023-02-21T03:43:11;8.53;;;5.90;;
10493;SDS011;5294;49.410;8.698;2023-02-21T03:45:37;6.93;;;6.23;;
10493;SDS011;5294;49.410;8.698;2023-02-21T03:48:03;8.30;;;6.10;;
10493;SDS011;5294;49.410;8.698;2023-02-21T03:50:29;7.47;;;6.30;;
10493;SDS011;5294;49.410;8.698;2023-02-21T03:52:57;7.30;;;6.27;;
10493;SDS011;5294;49.410;8.698;2023-02-21T03:55:26;7.03;;;6.33;;
10493;SDS011;5294;49.410;8.698;2023-02-21T03:57:54;10.03;;;6.20;;
10493;SDS011;5294;49.410;8.698;2023-02-21T04:00:22;9.03;;;6.63;;
10493;SDS011;5294;49.410;8.698;2023-02-21T04:02:48;9.07;;;6.37;;
10493;SDS011;5294;49.410;8.698;2023-02-21T04:05:19;9.03;;;6.20;;
10493;SDS011;5294;49.410;8.698;2023-02-21T04:07:45;8.83;;;6.67;;
10493;SDS011;5294;49.410;8.698;2023-02-21T04:10:12;9.10;;;5.93;;
10493;SDS011;5294;49.410;8.698;2023-02-21T04:12:41;8.17;;;6.00;;
10493;SDS011;5294;49.410;8.698;2023-02-21T04:15:07;7.90;;;5.80;;
10493;SDS011;5294;49.410;8.698;2023-02-21T04:17:33;7.73;;;5.87;;
10493;SDS011;5294;49.410;8.698;2023-02-21T04:20:01;6.83;;;5.80;;
10493;SDS011;5294;49.410;8.698;2023-02-21T04:22:27;7.07;;;6.13;;
10493;SDS011;5294;49.410;8.698;2023-02-21T04:24:53;7.53;;;6.03;;
10493;SDS011;5294;49.410;8.698;2023-02-21T04:27:19;8.13;;;6.03;;
10493;SDS011;5294;49.410;8.698;2023-02-21T04:29:45;6.37;;;5.73;;
10493;SDS011;5294;49.410;8.698;2023-02-21T04:32:14;9.27;;;6.00;;
10493;SDS011;5294;49.410;8.698;2023-02-21T04:34:40;6.57;;;5.83;;
10493;SDS011;5294;49.410;8.698;2023-02-21T04:37:09;6.90;;;5.80;;
10493;SDS011;5294;49.410;8.698;2023-02-21T04:39:35;8.67;;;6.70;;
10493;SDS011;5294;49.410;8.698;2023-02-21T04:42:01;8.83;;;5.90;;
10493;SDS011;5294;49.410;8.698;2023-02-21T04:44:27;7.83;;;6.70;;
10493;SDS011;5294;49.410;8.698;2023-02-21T04:46:53;8.83;;;6.80;;
10493;SDS011;5294;49.410;8.698;2023-02-21T04:49:19;7.33;;;6.40;;
10493;SDS011;5294;49.410;8.698;2023-02-21T04:51:44;7.20;;;6.60;;
10493;SDS011;5294;49.410;8.698;2023-02-21T04:54:13;7.47;;;5.87;;
10493;SDS011;5294;49.410;8.698;2023-02-21T04:56:39;7.70;;;6.37;;
10493;SDS011;5294;49.410;8.698;2023-02-21T04:59:05;7.27;;;6.53;;
10493;SDS011;5294;49.410;8.698;2023-02-21T05:01:31;7.83;;;6.40;;
10493;SDS011;5294;49.410;8.698;2023-02-21T05:03:57;7.03;;;6.33;;
10493;SDS011;5294;49.410;8.698;2023-02-21T05:06:24;8.40;;;6.40;;
10493;SDS011;5294;49.410;8.698;2023-02-21T05:08:50;7.90;;;6.53;;
10493;SDS011;5294;49.410;8.698;2023-02-21T05:11:19;9.10;;;6.67;;
10493;SDS011;5294;49.410;8.698;2023-02-21T05:13:47;8.47;;;7.00;;
10493;SDS011;5294;49.410;8.698;2023-02-21T05:16:13;9.73;;;6.80;;
10493;SDS011;5294;49.410;8.698;2023-02-21T05:18:42;9.60;;;6.97;;
10493;SDS011;5294;49.410;8.698;2023-02-21T05:21:11;8.10;;;7.23;;
10493;SDS011;5294;49.410;8.698;2023-02-21T05:23:37;9.73;;;7.20;;
10493;SDS011;5294;49.410;8.698;2023-02-21T05:26:05;7.60;;;6.80;;
10493;SDS011;5294;49.410;8.698;2023-02-21T05:28:31;9.07;;;7.27;;
10493;SDS011;5294;49.410;8.698;2023-02-21T05:30:57;9.10;;;7.40;;
10493;SDS011;5294;49.410;8.698;2023-02-21T05:33:23;7.73;;;6.93;;
10493;SDS011;5294;49.410;8.698;2023-02-21T05:35:49;9.23;;;6.90;;
10493;SDS011;5294;49.410;8.698;2023-02-21T05:38:18;8.77;;;7.60;;
10493;SDS011;5294;49.410;8.698;2023-02-21T05:40:49;9.37;;;7.40;;
10493;SDS011;5294;49.410;8.698;2023-02-21T05:43:18;8.67;;;7.07;;
10493;SDS011;5294;49.410;8.698;2023-02-21T05:45:46;8.83;;;7.87;;
10493;SDS011;5294;49.410;8.698;2023-02-21T05:48:13;7.97;;;7.00;;
10493;SDS011;5294;49.410;8.698;2023-02-21T05:50:41;9.40;;;7.77;;
10493;SDS011;5294;49.410;8.698;2023-02-21T05:53:10;8.73;;;6.70;;
10493;SDS011;5294;49.410;8.698;2023-02-21T05:55:36;9.40;;;7.13;;
10493;SDS011;5294;49.410;8.698;2023-02-21T05:58:02;7.90;;;7.20;;
10493;SDS011;5294;49.410;8.698;2023-02-21T06:00:28;10.27;;;7.40;;
10493;SDS011;5294;49.410;8.698;2023-02-21T06:02:55;8.50;;;7.23;;
10493;SDS011;5294;49.410;8.698;2023-02-21T06:05:21;10.27;;;7.27;;
10493;SDS011;5294;49.410;8.698;2023-02-21T06:07:50;9.43;;;6.90;;
10493;SDS011;5294;49.410;8.698;2023-02-21T06:10:16;9.20;;;7.27;;
10493;SDS011;5294;49.410;8.698;2023-02-21T06:12:42;9.77;;;7.70;;
10493;SDS011;5294;49.410;8.698;2023-02-21T06:15:08;8.20;;;7.20;;
10493;SDS011;5294;49.410;8.698;2023-02-21T06:17:35;10.07;;;7.27;;
10493;SDS011;5294;49.410;8.698;2023-02-21T06:20:02;10.63;;;7.70;;
10493;SDS011;5294;49.410;8.698;2023-02-21T06:22:28;12.60;;;8.37;;
10493;SDS011;5294;49.410;8.698;2023-02-21T06:24:54;8.53;;;7.63;;
10493;SDS011;5294;49.410;8.698;2023-02-21T06:27:22;10.63;;;8.13;;
10493;SDS011;5294;49.410;8.698;2023-02-21T06:29:49;10.40;;;7.37;;
10493;SDS011;5294;49.410;8.698;2023-02-21T06:32:17;8.50;;;7.43;;
10493;SDS011;5294;49.410;8.698;2023-02-21T06:34:43;8.67;;;7.53;;
10493;SDS011;5294;49.410;8.698;2023-02-21T06:37:12;8.97;;;8.07;;
10493;SDS011;5294;49.410;8.698;2023-02-21T06:39:38;9.77;;;8.07;;
10493;SDS011;5294;49.410;8.698;2023-02-21T06:42:06;9.43;;;7.77;;
10493;SDS011;5294;49.410;8.698;2023-02-21T06:44:32;11.47;;;8.57;;
10493;SDS011;5294;49.410;8.698;2023-02-21T06:46:58;8.70;;;7.80;;
10493;SDS011;5294;49.410;8.698;2023-02-21T06:49:27;9.07;;;8.07;;
10493;SDS011;5294;49.410;8.698;2023-02-21T06:51:52;8.97;;;7.70;;
10493;SDS011;5294;49.410;8.698;2023-02-21T06:54:18;9.37;;;8.20;;
10493;SDS011;5294;49.410;8.698;2023-02-21T06:56:44;8.73;;;6.97;;
10493;SDS011;5294;49.410;8.698;2023-02-21T06:59:10;9.43;;;8.03;;
10493;SDS011;5294;49.410;8.698;2023-02-21T07:01:36;10.73;;;8.00;;
10493;SDS011;5294;49.410;8.698;2023-02-21T07:04:07;9.00;;;7.77;;
10493;SDS011;5294;49.410;8.698;2023-02-21T07:06:33;11.73;;;9.00;;
10493;SDS011;5294;49.410;8.698;2023-02-21T07:08:59;10.83;;;8.37;;
10493;SDS011;5294;49.410;8.698;2023-02-21T07:11:27;9.47;;;8.27;;
10493;SDS011;5294;49.410;8.698;2023-02-21T07:13:55;10.00;;;8.00;;
10493;SDS011;5294;49.410;8.698;2023-02-21T07:16:23;10.43;;;7.80;;
10493;SDS011;5294;49.410;8.698;2023-02-21T07:18:48;9.03;;;8.13;;
10493;SDS011;5294;49.410;8.698;2023-02-21T07:21:15;10.07;;;8.50;;
10493;SDS011;5294;49.410;8.698;2023-02-21T07:23:42;10.23;;;8.27;;
10493;SDS011;5294;49.410;8.698;2023-02-21T07:26:08;10.03;;;8.37;;
10493;SDS011;5294;49.410;8.698;2023-02-21T07:28:34;9.23;;;8.33;;
10493;SDS011;5294;49.410;8.698;2023-02-21T07:31:00;11.83;;;8.87;;
10493;SDS011;5294;49.410;8.698;2023-02-21T07:33:26;9.77;;;8.70;;
10493;SDS011;5294;49.410;8.698;2023-02-21T07:35:52;9.10;;;8.13;;
10493;SDS011;5294;49.410;8.698;2023-02-21T07:38:21;10.67;;;8.27;;
10493;SDS011;5294;49.410;8.698;2023-02-21T07:40:48;8.53;;;7.63;;
10493;SDS011;5294;49.410;8.698;2023-02-21T07:43:14;10.07;;;7.87;;
10493;SDS011;5294;49.410;8.698;2023-02-21T07:45:40;10.13;;;7.57;;
10493;SDS011;5294;49.410;8.698;2023-02-21T07:48:08;9.80;;;8.17;;
10493;SDS011;5294;49.410;8.698;2023-02-21T07:50:38;10.27;;;7.60;;
10493;SDS011;5294;49.410;8.698;2023-02-21T07:53:04;8.73;;;7.37;;
10493;SDS011;5294;49.410;8.698;2023-02-21T07:55:30;8.43;;;7.60;;
10493;SDS011;5294;49.410;8.698;2023-02-21T07:57:57;8.77;;;6.80;;
10493;SDS011;5294;49.410;8.698;2023-02-21T08:00:23;7.57;;;6.87;;
10493;SDS011;5294;49.410;8.698;2023-02-21T08:02:49;9.50;;;6.57;;
10493;SDS011;5294;49.410;8.698;2023-02-21T08:05:16;7.00;;;5.90;;
10493;SDS011;5294;49.410;8.698;2023-02-21T08:07:45;6.63;;;5.97;;
10493;SDS011;5294;49.410;8.698;2023-02-21T08:10:12;7.87;;;6.33;;
10493;SDS011;5294;49.410;8.698;2023-02-21T08:12:38;6.63;;;5.97;;
10493;SDS011;5294;49.410;8.698;2023-02-21T08:15:04;6.97;;;5.97;;
10493;SDS011;5294;49.410;8.698;2023-02-21T08:17:33;6.77;;;5.87;;
10493;SDS011;5294;49.410;8.698;2023-02-21T08:20:01;6.23;;;5.63;;
10493;SDS011;5294;49.410;8.698;2023-02-21T08:22:28;7.60;;;6.60;;
10493;SDS011;5294;49.410;8.698;2023-02-21T08:24:57;7.80;;;6.17;;
10493;SDS011;5294;49.410;8.698;2023-02-21T08:27:27;5.93;;;5.43;;
10493;SDS011;5294;49.410;8.698;2023-02-21T08:29:58;6.63;;;5.60;;
10493;SDS011;5294;49.410;8.698;2023-02-21T08:32:24;6.40;;;5.80;;
10493;SDS011;5294;49.410;8.698;2023-02-21T08:34:50;8.53;;;6.27;;
10493;SDS011;5294;49.410;8.698;2023-02-21T08:37:18;7.50;;;6.33;;
10493;SDS011;5294;49.410;8.698;2023-02-21T08:39:47;9.17;;;6.07;;
10493;SDS011;5294;49.410;8.698;2023-02-21T08:42:17;8.27;;;6.40;;
10493;SDS011;5294;49.410;8.698;2023-02-21T08:44:45;10.47;;;8.37;;
10493;SDS011;5294;49.410;8.698;2023-02-21T08:47:12;11.03;;;8.97;;
10493;SDS011;5294;49.410;8.698;2023-02-21T08:49:38;9.13;;;7.83;;
10493;SDS011;5294;49.410;8.698;2023-02-21T08:52:05;7.43;;;6.47;;
10493;SDS011;5294;49.410;8.698;2023-02-21T08:54:31;7.77;;;6.77;;
10493;SDS011;5294;49.410;8.698;2023-02-21T08:56:57;6.87;;;6.00;;
10493;SDS011;5294;49.410;8.698;2023-02-21T08:59:24;8.97;;;6.93;;
10493;SDS011;5294;49.410;8.698;2023-02-21T09:01:51;7.17;;;6.57;;
10493;SDS011;5294;49.410;8.698;2023-02-21T09:04:17;9.40;;;7.30;;
10493;SDS011;5294;49.410;8.698;2023-02-21T09:06:43;7.50;;;6.70;;
10493;SDS011;5294;49.410;8.698;2023-02-21T09:09:09;7.40;;;6.70;;
10493;SDS011;5294;49.410;8.698;2023-02-21T09:11:37;8.20;;;7.37;;
10493;SDS011;5294;49.410;8.698;2023-02-21T09:14:03;9.10;;;7.00;;
10493;SDS011;5294;49.410;8.698;2023-02-21T09:16:30;8.37;;;7.53;;
10493;SDS011;5294;49.410;8.698;2023-02-21T09:18:57;8.30;;;7.03;;
10493;SDS011;5294;49.410;8.698;2023-02-21T09:21:24;11.80;;;7.80;;
10493;SDS011;5294;49.410;8.698;2023-02-21T09:23:53;12.33;;;8.47;;
10493;SDS011;5294;49.410;8.698;2023-02-21T09:26:22;10.27;;;8.67;;
10493;SDS011;5294;49.410;8.698;2023-02-21T09:28:51;17.07;;;9.93;;
10493;SDS011;5294;49.410;8.698;2023-02-21T09:31:19;10.77;;;9.67;;
10493;SDS011;5294;49.410;8.698;2023-02-21T09:33:45;11.10;;;9.10;;
10493;SDS011;5294;49.410;8.698;2023-02-21T09:36:14;11.77;;;10.20;;
10493;SDS011;5294;49.410;8.698;2023-02-21T09:38:42;12.40;;;10.47;;
10493;SDS011;5294;49.410;8.698;2023-02-21T09:41:12;11.43;;;10.27;;
10493;SDS011;5294;49.410;8.698;2023-02-21T09:43:38;11.27;;;9.87;;
10493;SDS011;5294;49.410;8.698;2023-02-21T09:46:17;10.77;;;9.20;;
10493;SDS011;5294;49.410;8.698;2023-02-21T09:48:43;11.33;;;9.80;;
10493;SDS011;5294;49.410;8.698;2023-02-21T09:51:12;12.10;;;10.60;;
10493;SDS011;5294;49.410;8.698;2023-02-21T09:53:42;13.80;;;11.00;;
10493;SDS011;5294;49.410;8.698;2023-02-21T09:56:12;12.10;;;10.80;;
10493;SDS011;5294;49.410;8.698;2023-02-21T09:58:41;13.53;;;12.10;;
10493;SDS011;5294;49.410;8.698;2023-02-21T10:01:12;13.83;;;12.33;;
10493;SDS011;5294;49.410;8.698;2023-02-21T10:03:46;13.83;;;12.23;;
10493;SDS011;5294;49.410;8.698;2023-02-21T10:08:47;15.30;;;13.03;;
10493;SDS011;5294;49.410;8.698;2023-02-21T10:13:50;15.33;;;13.83;;
10493;SDS011;5294;49.410;8.698;2023-02-21T10:21:29;15.43;;;13.87;;
10493;SDS011;5294;49.410;8.698;2023-02-21T10:23:59;16.37;;;14.47;;
10493;SDS011;5294;49.410;8.698;2023-02-21T10:26:32;15.20;;;13.60;;
10493;SDS011;5294;49.410;8.698;2023-02-21T10:29:04;14.13;;;12.40;;
10493;SDS011;5294;49.410;8.698;2023-02-21T10:31:37;13.77;;;11.97;;
10493;SDS011;5294;49.410;8.698;2023-02-21T10:34:05;12.40;;;11.10;;
10493;SDS011;5294;49.410;8.698;2023-02-21T10:36:34;14.00;;;12.60;;
10493;SDS011;5294;49.410;8.698;2023-02-21T10:41:28;14.07;;;12.67;;
10493;SDS011;5294;49.410;8.698;2023-02-21T10:43:59;15.07;;;12.83;;
10493;SDS011;5294;49.410;8.698;2023-02-21T10:46:27;14.43;;;12.93;;
10493;SDS011;5294;49.410;8.698;2023-02-21T10:51:40;22.00;;;14.50;;
10493;SDS011;5294;49.410;8.698;2023-02-21T10:54:17;14.50;;;12.97;;
10493;SDS011;5294;49.410;8.698;2023-02-21T10:56:44;16.70;;;13.67;;
10493;SDS011;5294;49.410;8.698;2023-02-21T10:59:12;16.33;;;13.13;;
10493;SDS011;5294;49.410;8.698;2023-02-21T11:01:46;14.93;;;13.53;;
10493;SDS011;5294;49.410;8.698;2023-02-21T11:07:04;13.57;;;12.00;;
10493;SDS011;5294;49.410;8.698;2023-02-21T11:14:35;13.97;;;12.57;;
10493;SDS011;5294;49.410;8.698;2023-02-21T11:19:40;13.73;;;12.33;;
10493;SDS011;5294;49.410;8.698;2023-02-21T11:22:07;14.37;;;12.83;;
10493;SDS011;5294;49.410;8.698;2023-02-21T11:24:33;13.40;;;11.90;;
10493;SDS011;5294;49.410;8.698;2023-02-21T11:27:02;14.23;;;12.83;;
10493;SDS011;5294;49.410;8.698;2023-02-21T11:29:28;13.30;;;11.90;;
10493;SDS011;5294;49.410;8.698;2023-02-21T11:31:54;13.77;;;11.60;;
10493;SDS011;5294;49.410;8.698;2023-02-21T11:34:20;13.93;;;11.70;;
10493;SDS011;5294;49.410;8.698;2023-02-21T11:36:53;13.47;;;12.07;;
10493;SDS011;5294;49.410;8.698;2023-02-21T11:39:33;13.43;;;12.03;;
10493;SDS011;5294;49.410;8.698;2023-02-21T11:42:00;12.47;;;11.23;;
10493;SDS011;5294;49.410;8.698;2023-02-21T11:49:53;13.90;;;10.93;;
10493;SDS011;5294;49.410;8.698;2023-02-21T11:52:27;13.10;;;11.70;;
10493;SDS011;5294;49.410;8.698;2023-02-21T11:54:54;18.67;;;13.63;;
10493;SDS011;5294;49.410;8.698;2023-02-21T12:07:38;13.07;;;11.60;;
10493;SDS011;5294;49.410;8.698;2023-02-21T12:10:18;14.07;;;12.50;;
10493;SDS011;5294;49.410;8.698;2023-02-21T12:12:51;13.67;;;11.97;;
10493;SDS011;5294;49.410;8.698;2023-02-21T12:15:22;14.43;;;11.37;;
10493;SDS011;5294;49.410;8.698;2023-02-21T12:41:05;10.10;;;8.77;;
10493;SDS011;5294;49.410;8.698;2023-02-21T12:46:27;9.87;;;7.83;;
10493;SDS011;5294;49.410;8.698;2023-02-21T12:48:58;9.73;;;8.17;;
10493;SDS011;5294;49.410;8.698;2023-02-21T12:51:30;8.83;;;7.90;;
10493;SDS011;5294;49.410;8.698;2023-02-21T12:56:53;7.47;;;6.87;;
10493;SDS011;5294;49.410;8.698;2023-02-21T13:02:00;9.80;;;8.17;;
10493;SDS011;5294;49.410;8.698;2023-02-21T13:10:02;11.03;;;9.57;;
10493;SDS011;5294;49.410;8.698;2023-02-21T13:12:32;10.17;;;7.60;;
10493;SDS011;5294;49.410;8.698;2023-02-21T13:15:02;8.23;;;7.40;;
10493;SDS011;5294;49.410;8.698;2023-02-21T13:17:29;10.40;;;7.93;;
10493;SDS011;5294;49.410;8.698;2023-02-21T13:20:03;8.07;;;7.27;;
10493;SDS011;5294;49.410;8.698;2023-02-21T13:30:44;9.20;;;7.20;;
10493;SDS011;5294;49.410;8.698;2023-02-21T13:36:15;8.53;;;7.47;;
10493;SDS011;5294;49.410;8.698;2023-02-21T13:38:43;10.27;;;9.17;;
10493;SDS011;5294;49.410;8.698;2023-02-21T13:41:10;9.00;;;7.30;;
10493;SDS011;5294;49.410;8.698;2023-02-21T13:43:46;16.07;;;9.70;;
10493;SDS011;5294;49.410;8.698;2023-02-21T13:46:59;16.90;;;8.00;;
10493;SDS011;5294;49.410;8.698;2023-02-21T13:51:49;6.67;;;6.07;;
10493;SDS011;5294;49.410;8.698;2023-02-21T13:54:23;9.07;;;8.10;;
10493;SDS011;5294;49.410;8.698;2023-02-21T13:56:51;7.23;;;6.33;;
10493;SDS011;5294;49.410;8.698;2023-02-21T13:59:38;6.90;;;6.13;;
10493;SDS011;5294;49.410;8.698;2023-02-21T14:02:22;10.13;;;7.50;;
10493;SDS011;5294;49.410;8.698;2023-02-21T14:07:36;9.27;;;6.07;;
10493;SDS011;5294;49.410;8.698;2023-02-21T14:10:04;6.30;;;5.70;;
10493;SDS011;5294;49.410;8.698;2023-02-21T14:12:30;6.90;;;6.20;;
10493;SDS011;5294;49.410;8.698;2023-02-21T14:15:05;8.10;;;5.73;;
10493;SDS011;5294;49.410;8.698;2023-02-21T14:17:32;7.47;;;6.63;;
10493;SDS011;5294;49.410;8.698;2023-02-21T14:19:58;8.53;;;5.90;;
10493;SDS011;5294;49.410;8.698;2023-02-21T14:22:26;16.43;;;6.50;;
10493;SDS011;5294;49.410;8.698;2023-02-21T14:25:03;7.10;;;5.63;;
10493;SDS011;5294;49.410;8.698;2023-02-21T14:27:33;7.00;;;5.53;;
10493;SDS011;5294;49.410;8.698;2023-02-21T14:32:27;9.20;;;7.87;;
10493;SDS011;5294;49.410;8.698;2023-02-21T14:34:56;6.30;;;5.13;;
10493;SDS011;5294;49.410;8.698;2023-02-21T14:39:57;9.80;;;8.63;;
10493;SDS011;5294;49.410;8.698;2023-02-21T14:47:40;7.87;;;5.93;;
10493;SDS011;5294;49.410;8.698;2023-02-21T14:52:49;15.63;;;14.03;;
10493;SDS011;5294;49.410;8.698;2023-02-21T15:05:42;7.27;;;4.80;;
10493;SDS011;5294;49.410;8.698;2023-02-21T15:10:39;5.57;;;5.00;;
10493;SDS011;5294;49.410;8.698;2023-02-21T15:13:19;4.87;;;4.37;;
10493;SDS011;5294;49.410;8.698;2023-02-21T15:15:45;5.80;;;5.13;;
10493;SDS011;5294;49.410;8.698;2023-02-21T15:18:22;5.17;;;3.70;;
10493;SDS011;5294;49.410;8.698;2023-02-21T15:21:00;7.57;;;3.50;;
10493;SDS011;5294;49.410;8.698;2023-02-21T15:23:29;7.07;;;3.97;;
10493;SDS011;5294;49.410;8.698;2023-02-21T15:25:56;5.03;;;3.40;;
10493;SDS011;5294;49.410;8.698;2023-02-21T15:28:31;6.67;;;4.37;;
10493;SDS011;5294;49.410;8.698;2023-02-21T15:33:24;5.17;;;3.30;;
10493;SDS011;5294;49.410;8.698;2023-02-21T15:40:56;5.87;;;3.97;;
10493;SDS011;5294;49.410;8.698;2023-02-21T15:43:41;4.23;;;3.70;;
10493;SDS011;5294;49.410;8.698;2023-02-21T15:46:10;4.97;;;4.23;;
10493;SDS011;5294;49.410;8.698;2023-02-21T15:48:37;11.83;;;8.50;;
10493;SDS011;5294;49.410;8.698;2023-02-21T15:51:06;5.90;;;4.67;;
10493;SDS011;5294;49.410;8.698;2023-02-21T15:53:36;7.83;;;5.53;;
10493;SDS011;5294;49.410;8.698;2023-02-21T15:56:22;10.97;;;5.83;;
10493;SDS011;5294;49.410;8.698;2023-02-21T16:01:34;7.37;;;5.03;;
10493;SDS011;5294;49.410;8.698;2023-02-21T16:04:20;6.23;;;4.43;;
10493;SDS011;5294;49.410;8.698;2023-02-21T16:06:49;6.47;;;5.00;;
10493;SDS011;5294;49.410;8.698;2023-02-21T16:14:17;8.27;;;4.93;;
10493;SDS011;5294;49.410;8.698;2023-02-21T16:16:43;5.20;;;3.90;;
10493;SDS011;5294;49.410;8.698;2023-02-21T16:19:17;5.17;;;4.23;;
10493;SDS011;5294;49.410;8.698;2023-02-21T16:21:43;4.13;;;3.40;;
10493;SDS011;5294;49.410;8.698;2023-02-21T16:24:29;3.80;;;3.50;;
10493;SDS011;5294;49.410;8.698;2023-02-21T16:27:02;5.77;;;3.90;;
10493;SDS011;5294;49.410;8.698;2023-02-21T16:29:28;6.47;;;4.00;;
10493;SDS011;5294;49.410;8.698;2023-02-21T16:31:54;4.77;;;4.17;;
10493;SDS011;5294;49.410;8.698;2023-02-21T16:34:29;9.77;;;5.90;;
10493;SDS011;5294;49.410;8.698;2023-02-21T16:37:05;5.77;;;5.10;;
10493;SDS011;5294;49.410;8.698;2023-02-21T16:39:34;4.90;;;4.40;;
10493;SDS011;5294;49.410;8.698;2023-02-21T16:42:00;4.30;;;3.90;;
10493;SDS011;5294;49.410;8.698;2023-02-21T16:44:28;5.63;;;4.53;;
10493;SDS011;5294;49.410;8.698;2023-02-21T16:46:54;6.13;;;5.20;;
10493;SDS011;5294;49.410;8.698;2023-02-21T16:49:23;3.60;;;3.30;;
10493;SDS011;5294;49.410;8.698;2023-02-21T16:51:49;6.07;;;4.67;;
10493;SDS011;5294;49.410;8.698;2023-02-21T16:54:15;3.90;;;3.53;;
10493;SDS011;5294;49.410;8.698;2023-02-21T16:56:44;4.63;;;4.13;;
10493;SDS011;5294;49.410;8.698;2023-02-21T16:59:12;3.43;;;3.13;;
10493;SDS011;5294;49.410;8.698;2023-02-21T17:01:39;5.20;;;4.00;;
10493;SDS011;5294;49.410;8.698;2023-02-21T17:04:24;5.17;;;4.37;;
10493;SDS011;5294;49.410;8.698;2023-02-21T17:06:57;4.47;;;3.37;;
10493;SDS011;5294;49.410;8.698;2023-02-21T17:09:27;5.70;;;4.37;;
10493;SDS011;5294;49.410;8.698;2023-02-21T17:11:53;4.00;;;3.60;;
10493;SDS011;5294;49.410;8.698;2023-02-21T17:14:20;5.67;;;3.90;;
10493;SDS011;5294;49.410;8.698;2023-02-21T17:16:48;4.90;;;3.90;;
10493;SDS011;5294;49.410;8.698;2023-02-21T17:19:15;4.97;;;3.30;;
10493;SDS011;5294;49.410;8.698;2023-02-21T17:21:42;7.50;;;4.10;;
10493;SDS011;5294;49.410;8.698;2023-02-21T17:24:08;6.45;;;5.13;;
10493;SDS011;5294;49.410;8.698;2023-02-21T17:26:35;5.07;;;4.10;;
10493;SDS011;5294;49.410;8.698;2023-02-21T17:29:02;5.87;;;4.80;;
10493;SDS011;5294;49.410;8.698;2023-02-21T17:31:30;5.10;;;4.40;;
10493;SDS011;5294;49.410;8.698;2023-02-21T17:33:57;6.13;;;4.40;;
10493;SDS011;5294;49.410;8.698;2023-02-21T17:36:25;5.50;;;4.17;;
10493;SDS011;5294;49.410;8.698;2023-02-21T17:38:51;4.43;;;3.73;;
10493;SDS011;5294;49.410;8.698;2023-02-21T17:41:18;4.03;;;3.53;;
10493;SDS011;5294;49.410;8.698;2023-02-21T17:43:46;4.57;;;3.63;;
10493;SDS011;5294;49.410;8.698;2023-02-21T17:46:13;4.03;;;3.70;;
10493;SDS011;5294;49.410;8.698;2023-02-21T17:48:39;6.17;;;4.70;;
10493;SDS011;5294;49.410;8.698;2023-02-21T17:51:05;5.93;;;5.20;;
10493;SDS011;5294;49.410;8.698;2023-02-21T17:53:34;5.30;;;4.57;;
10493;SDS011;5294;49.410;8.698;2023-02-21T17:56:00;5.17;;;4.50;;
10493;SDS011;5294;49.410;8.698;2023-02-21T17:58:26;4.80;;;3.83;;
10493;SDS011;5294;49.410;8.698;2023-02-21T18:00:56;6.33;;;5.73;;
10493;SDS011;5294;49.410;8.698;2023-02-21T18:03:22;5.37;;;4.87;;
10493;SDS011;5294;49.410;8.698;2023-02-21T18:05:48;4.57;;;4.17;;
10493;SDS011;5294;49.410;8.698;2023-02-21T18:08:15;5.40;;;3.93;;
10493;SDS011;5294;49.410;8.698;2023-02-21T18:10:41;4.10;;;3.70;;